Time;durP1;ratioP1;P1;durP2;ratioP2;P2;SDS_P1;SDS_P2;PMS_P1;PMS_P2;Temp;Humidity;BMP_temperature;BMP_pressure;BME280_temperature;BME280_humidity;BME280_pressure;Samples;Min_cycle;Max_cycle;Signal;HPM_P1;HPM_P2
2022/02/15 00:00:42;;;;;;;;;;;;;;;4.03;80.43;97638.13;1649773;86;24819;-88
2022/02/15 00:03:13;;;;;;;;;;;;;;;4.04;80.63;97635.05;1640290;86;20236;-89
2022/02/15 00:05:39;;;;;;;;;;;;;;;4.08;80.88;97635.27;1643310;86;26066;-90
2022/02/15 00:08:05;;;;;;;;;;;;;;;4.12;81.11;97625.11;1665582;85;24537;-89
2022/02/15 00:10:37;;;;;;;;;;;;;;;4.12;81.29;97628.98;1663534;85;20204;-89
2022/02/15 00:13:10;;;;;;;;;;;;;;;4.11;81.44;97621.68;1664603;85;24767;-89
2022/02/15 00:15:36;;;;;;;;;;;;;;;4.12;81.62;97625.11;1667454;84;22069;-89
2022/02/15 00:18:07;;;;;;;;;;;;;;;4.12;81.79;97616.05;1665864;85;26029;-89
2022/02/15 00:20:33;;;;;;;;;;;;;;;4.19;82.03;97619.95;1666152;85;24433;-89
2022/02/15 00:23:01;;;;;;;;;;;;;;;4.18;82.23;97620.42;1668545;84;20288;-88
2022/02/15 00:25:27;;;;;;;;;;;;;;;4.20;82.39;97625.02;1663928;85;24938;-89
2022/02/15 00:27:53;;;;;;;;;;;;;;;4.24;82.57;97624.87;1668652;85;22058;-89
2022/02/15 00:30:20;;;;;;;;;;;;;;;4.26;82.72;97623.84;1668674;85;25968;-89
2022/02/15 00:32:46;;;;;;;;;;;;;;;4.28;82.90;97626.35;1662422;85;24429;-89
2022/02/15 00:35:16;;;;;;;;;;;;;;;4.32;83.07;97629.13;1662436;85;20252;-89
2022/02/15 00:37:43;;;;;;;;;;;;;;;4.32;83.19;97627.84;1671505;84;24821;-88
2022/02/15 00:40:09;;;;;;;;;;;;;;;4.32;83.29;97629.13;1661403;85;22053;-89
2022/02/15 00:42:35;;;;;;;;;;;;;;;4.29;83.40;97627.57;1686549;83;25988;-89
2022/02/15 00:45:03;;;;;;;;;;;;;;;4.32;83.53;97627.38;1695026;83;25292;-89
2022/02/15 00:47:29;;;;;;;;;;;;;;;4.34;83.66;97627.30;1698982;83;20530;-89
2022/02/15 00:49:56;;;;;;;;;;;;;;;4.36;83.83;97631.48;1692294;83;24815;-89
2022/02/15 00:52:34;;;;;;;;;;;;;;;4.39;83.96;97632.59;1688146;83;21588;-89
2022/02/15 00:55:00;;;;;;;;;;;;;;;4.37;84.06;97627.11;1695286;83;25980;-89
2022/02/15 00:57:26;;;;;;;;;;;;;;;4.40;84.22;97620.02;1686767;83;24274;-89
2022/02/15 00:59:53;;;;;;;;;;;;;;;4.46;84.41;97620.12;1668208;85;20184;-89
2022/02/15 01:02:22;;;;;;;;;;;;;;;4.46;84.55;97617.07;1659533;85;24732;-90
2022/02/15 01:04:48;;;;;;;;;;;;;;;4.48;84.65;97620.84;1665713;85;22145;-89
2022/02/15 01:07:14;;;;;;;;;;;;;;;4.53;84.83;97618.36;1669940;85;26085;-90
2022/02/15 01:09:40;;;;;;;;;;;;;;;4.58;84.98;97620.70;1665011;84;24483;-85
2022/02/15 01:12:07;;;;;;;;;;;;;;;4.57;85.07;97611.26;1699365;83;20240;-85
2022/02/15 01:14:33;;;;;;;;;;;;;;;4.61;85.19;97610.14;1672039;84;24846;-85
2022/02/15 01:16:59;;;;;;;;;;;;;;;4.61;85.26;97614.03;1671534;85;21923;-85
2022/02/15 01:19:25;;;;;;;;;;;;;;;4.61;85.36;97608.84;1667748;85;26040;-85
2022/02/15 01:21:51;;;;;;;;;;;;;;;4.62;85.45;97606.17;1673848;85;24425;-85
2022/02/15 01:24:17;;;;;;;;;;;;;;;4.61;85.51;97603.66;1666330;85;20451;-85
2022/02/15 01:26:43;;;;;;;;;;;;;;;4.57;85.51;97604.78;1667098;85;24722;-85
2022/02/15 01:29:09;;;;;;;;;;;;;;;4.50;85.48;97599.12;1667910;85;22713;-85
2022/02/15 01:31:35;;;;;;;;;;;;;;;4.52;85.54;97602.47;1666931;85;26699;-85
2022/02/15 01:34:01;;;;;;;;;;;;;;;4.54;85.64;97595.88;1659396;86;20357;-84
2022/02/15 01:36:27;;;;;;;;;;;;;;;4.57;85.77;97595.71;1684951;84;20244;-85
2022/02/15 01:38:53;;;;;;;;;;;;;;;4.56;85.85;97592.74;1671367;84;24747;-84
2022/02/15 01:41:19;;;;;;;;;;;;;;;4.57;85.97;97601.73;1667195;85;22113;-85
2022/02/15 01:43:51;;;;;;;;;;;;;;;4.56;86.04;97601.81;1651436;86;21025;-85
2022/02/15 01:46:14;;;;;;;;;;;;;;;4.57;86.15;97604.32;1650314;85;24647;-85
2022/02/15 01:48:42;;;;;;;;;;;;;;;4.54;86.20;97604.48;1644411;86;20274;-84
2022/02/15 01:51:08;;;;;;;;;;;;;;;4.49;86.19;97602.63;1652517;86;24829;-85
2022/02/15 01:53:34;;;;;;;;;;;;;;;4.45;86.24;97602.91;1652808;86;22020;-85
2022/02/15 01:56:01;;;;;;;;;;;;;;;4.41;86.28;97604.02;1652110;86;26215;-85
2022/02/15 01:58:33;;;;;;;;;;;;;;;4.40;86.36;97599.75;1647506;85;24503;-85
2022/02/15 02:00:59;;;;;;;;;;;;;;;4.40;86.46;97598.00;1646359;86;20262;-85
2022/02/15 02:03:25;;;;;;;;;;;;;;;4.36;86.53;97599.56;1651478;85;24723;-86
2022/02/15 02:05:51;;;;;;;;;;;;;;;4.37;86.65;97603.34;1645924;86;20320;-85
2022/02/15 02:08:19;;;;;;;;;;;;;;;4.40;86.79;97602.34;1650958;86;26093;-85
2022/02/15 02:10:45;;;;;;;;;;;;;;;4.41;86.90;97604.85;1649075;85;24482;-85
2022/02/15 02:13:11;;;;;;;;;;;;;;;4.42;87.04;97605.69;1648542;86;20539;-85
2022/02/15 02:15:37;;;;;;;;;;;;;;;4.40;87.12;97608.36;1648384;86;24804;-84
2022/02/15 02:18:04;;;;;;;;;;;;;;;4.40;87.22;97603.17;1647416;86;21945;-82
2022/02/15 02:20:30;;;;;;;;;;;;;;;4.42;87.38;97597.91;1646419;85;26053;-82
2022/02/15 02:22:56;;;;;;;;;;;;;;;4.40;87.48;97599.75;1640860;85;24501;-82
2022/02/15 02:25:22;;;;;;;;;;;;;;;4.39;87.58;97601.50;1647449;86;20222;-83
2022/02/15 02:27:50;;;;;;;;;;;;;;;4.40;87.67;97606.23;1649355;86;24740;-83
2022/02/15 02:30:16;;;;;;;;;;;;;;;4.33;87.65;97603.61;1648943;86;21531;-82
2022/02/15 02:32:43;;;;;;;;;;;;;;;4.26;87.58;97600.99;1651539;86;26098;-83
2022/02/15 02:35:09;;;;;;;;;;;;;;;4.16;87.49;97602.83;1648065;86;24516;-83
2022/02/15 02:37:35;;;;;;;;;;;;;;;4.07;87.37;97606.41;1647071;85;20472;-83
2022/02/15 02:40:09;;;;;;;;;;;;;;;3.97;87.32;97598.34;1644868;86;24721;-91
2022/02/15 02:42:38;;;;;;;;;;;;;;;3.93;87.33;97602.00;1668325;84;21999;-90
2022/02/15 02:45:05;;;;;;;;;;;;;;;3.88;87.37;97607.06;1684353;85;26617;-90
2022/02/15 02:47:31;;;;;;;;;;;;;;;3.77;87.34;97614.13;1683553;85;24463;-90
2022/02/15 02:49:58;;;;;;;;;;;;;;;3.66;87.36;97618.61;1681018;85;20228;-88
2022/02/15 02:52:24;;;;;;;;;;;;;;;3.56;87.34;97617.91;1684201;85;24898;-87
2022/02/15 02:54:52;;;;;;;;;;;;;;;3.47;87.39;97627.47;1678419;85;22004;-90
2022/02/15 02:57:20;;;;;;;;;;;;;;;3.38;87.43;97638.33;1686156;85;26059;-90
2022/02/15 02:59:48;;;;;;;;;;;;;;;3.33;87.55;97636.80;1687449;85;24408;-90
2022/02/15 03:02:15;;;;;;;;;;;;;;;3.33;87.72;97638.09;1681843;85;20219;-90
2022/02/15 03:04:42;;;;;;;;;;;;;;;3.38;87.95;97631.41;1677587;84;24826;-89
2022/02/15 03:07:08;;;;;;;;;;;;;;;3.43;88.16;97628.56;1681164;83;22062;-89
2022/02/15 03:09:35;;;;;;;;;;;;;;;3.43;88.36;97623.39;1682125;85;25992;-86
2022/02/15 03:12:01;;;;;;;;;;;;;;;3.47;88.55;97618.42;1687129;84;24444;-87
2022/02/15 03:14:27;;;;;;;;;;;;;;;3.48;88.74;97618.34;1683654;84;20303;-87
2022/02/15 03:16:53;;;;;;;;;;;;;;;3.47;88.91;97614.55;1682339;85;24780;-85
2022/02/15 03:19:19;;;;;;;;;;;;;;;3.47;89.02;97614.55;1680430;85;21929;-85
2022/02/15 03:21:45;;;;;;;;;;;;;;;3.48;89.16;97617.52;1684006;84;26039;-85
2022/02/15 03:24:11;;;;;;;;;;;;;;;3.49;89.32;97622.58;1686468;85;24559;-89
2022/02/15 03:26:38;;;;;;;;;;;;;;;3.51;89.46;97618.16;1681536;85;20311;-90
2022/02/15 03:29:04;;;;;;;;;;;;;;;3.49;89.57;97617.89;1675098;85;24787;-90
2022/02/15 03:31:34;;;;;;;;;;;;;;;3.46;89.65;97614.16;1710595;83;21972;-90
2022/02/15 03:34:00;;;;;;;;;;;;;;;3.44;89.79;97606.48;1670890;85;26244;-90
2022/02/15 03:36:26;;;;;;;;;;;;;;;3.44;89.92;97606.97;1656858;86;24543;-90
2022/02/15 03:38:52;;;;;;;;;;;;;;;3.45;90.07;97596.52;1705202;83;20591;-89
2022/02/15 03:44:17;;;;;;;;;;;;;;;3.48;90.36;97602.83;1692081;84;22719;-91
2022/02/15 03:46:43;;;;;;;;;;;;;;;3.41;90.43;97602.78;1662175;86;26186;-83
2022/02/15 03:49:11;;;;;;;;;;;;;;;3.32;90.43;97606.71;1662776;86;24466;-82
2022/02/15 03:51:39;;;;;;;;;;;;;;;3.24;90.42;97604.98;1664767;85;20318;-90
2022/02/15 03:54:12;;;;;;;;;;;;;;;3.15;90.39;97600.77;1688856;84;24772;-90
2022/02/15 03:56:38;;;;;;;;;;;;;;;3.15;90.52;97602.90;1672522;85;22005;-86
2022/02/15 03:59:06;;;;;;;;;;;;;;;3.19;90.76;97604.85;1692229;83;26215;-86
2022/02/15 04:01:33;;;;;;;;;;;;;;;3.16;90.94;97616.66;1692535;84;24622;-86
2022/02/15 04:04:08;;;;;;;;;;;;;;;3.09;90.99;97629.52;1662817;86;20491;-90
2022/02/15 04:06:36;;;;;;;;;;;;;;;2.98;90.97;97631.84;1665727;85;24834;-90
2022/02/15 04:09:05;;;;;;;;;;;;;;;3.01;91.11;97634.25;1666751;84;21948;-90
2022/02/15 04:11:31;;;;;;;;;;;;;;;3.11;91.41;97636.27;1691525;84;26020;-90
2022/02/15 04:13:57;;;;;;;;;;;;;;;3.20;91.71;97636.25;1679492;85;24651;-82
2022/02/15 04:16:23;;;;;;;;;;;;;;;3.29;92.00;97640.47;1680108;84;20482;-82
2022/02/15 04:18:49;;;;;;;;;;;;;;;3.35;92.23;97644.48;1679957;85;24795;-82
2022/02/15 04:21:20;;;;;;;;;;;;;;;3.26;92.29;97639.81;1677060;85;21926;-87
2022/02/15 04:23:44;;;;;;;;;;;;;;;3.21;92.33;97645.69;1680168;85;26814;-87
2022/02/15 04:26:10;;;;;;;;;;;;;;;3.28;92.57;97642.67;1681882;85;24619;-87
2022/02/15 04:28:36;;;;;;;;;;;;;;;3.32;92.75;97638.20;1678662;84;20228;-87
2022/02/15 04:31:02;;;;;;;;;;;;;;;3.42;93.02;97628.19;1676624;85;24794;-86
2022/02/15 04:33:29;;;;;;;;;;;;;;;3.47;93.15;97626.18;1676035;85;21936;-87
2022/02/15 04:35:55;;;;;;;;;;;;;;;3.44;93.20;97621.19;1674140;83;26199;-87
2022/02/15 04:38:21;;;;;;;;;;;;;;;3.41;93.24;97626.05;1680906;84;24392;-87
2022/02/15 04:40:47;;;;;;;;;;;;;;;3.38;93.27;97627.03;1678414;85;20216;-87
2022/02/15 04:43:13;;;;;;;;;;;;;;;3.30;93.22;97630.97;1684544;84;25803;-87
2022/02/15 04:45:39;;;;;;;;;;;;;;;3.27;93.22;97633.24;1685568;83;21984;-87
2022/02/15 04:48:11;;;;;;;;;;;;;;;3.22;93.22;97625.36;1706383;82;26055;-89
2022/02/15 04:50:38;;;;;;;;;;;;;;;3.15;93.22;97630.50;1707075;83;24497;-90
2022/02/15 04:53:04;;;;;;;;;;;;;;;3.05;93.12;97628.02;1707116;83;20249;-82
2022/02/15 04:55:30;;;;;;;;;;;;;;;2.96;93.08;97624.16;1711003;82;24706;-82
2022/02/15 04:57:56;;;;;;;;;;;;;;;2.92;93.10;97628.66;1708582;83;21953;-82
2022/02/15 05:00:22;;;;;;;;;;;;;;;2.86;93.15;97632.85;1706953;83;25940;-87
2022/02/15 05:02:49;;;;;;;;;;;;;;;2.86;93.25;97638.47;1702730;83;24358;-87
2022/02/15 05:05:15;;;;;;;;;;;;;;;2.87;93.45;97637.56;1710661;83;20453;-87
2022/02/15 05:07:42;;;;;;;;;;;;;;;2.88;93.64;97637.95;1709273;83;24774;-87
2022/02/15 05:10:09;;;;;;;;;;;;;;;2.83;93.77;97640.77;1671535;85;22237;-82
2022/02/15 05:12:37;;;;;;;;;;;;;;;2.86;93.99;97642.34;1700025;84;26236;-82
2022/02/15 05:15:09;;;;;;;;;;;;;;;2.90;94.28;97643.40;1701224;83;24418;-82
2022/02/15 05:17:32;;;;;;;;;;;;;;;2.93;94.57;97636.80;1655264;86;20320;-87
2022/02/15 05:19:58;;;;;;;;;;;;;;;3.02;94.92;97647.55;1661938;85;24763;-89
2022/02/15 05:22:24;;;;;;;;;;;;;;;3.12;95.27;97645.70;1687683;84;22074;-89
2022/02/15 05:24:59;;;;;;;;;;;;;;;3.15;95.55;97644.27;1658332;86;26029;-89
2022/02/15 05:27:28;;;;;;;;;;;;;;;3.19;95.82;97646.21;1670264;85;24548;-89
2022/02/15 05:30:02;;;;;;;;;;;;;;;3.25;96.10;97645.89;1701734;84;20150;-90
2022/02/15 05:32:34;;;;;;;;;;;;;;;3.30;96.36;97642.60;1707123;83;24824;-90
2022/02/15 05:35:01;;;;;;;;;;;;;;;3.34;96.60;97647.98;1677565;83;22641;-85
2022/02/15 05:37:27;;;;;;;;;;;;;;;3.40;96.84;97654.12;1666829;85;25830;-86
2022/02/15 05:39:53;;;;;;;;;;;;;;;3.44;97.04;97655.61;1692614;84;24537;-83
2022/02/15 05:42:19;;;;;;;;;;;;;;;3.49;97.29;97654.91;1687358;84;20156;-82
2022/02/15 05:44:45;;;;;;;;;;;;;;;3.55;97.47;97662.34;1673624;85;24880;-85
2022/02/15 05:47:11;;;;;;;;;;;;;;;3.58;97.65;97667.37;1676149;84;22076;-85
2022/02/15 05:50:49;;;;;;;;;;;;;;;3.63;97.83;97669.23;1674235;85;26041;-83
2022/02/15 05:52:07;;;;;;;;;;;;;;;3.63;97.96;97673.12;1673883;85;26061;-83
2022/02/15 05:54:34;;;;;;;;;;;;;;;3.62;98.02;97684.38;1675684;85;20157;-83
2022/02/15 05:57:00;;;;;;;;;;;;;;;3.60;98.08;97684.91;1674646;85;24790;-83
2022/02/15 05:59:27;;;;;;;;;;;;;;;3.59;98.13;97679.39;1676862;85;22726;-83
2022/02/15 06:01:53;;;;;;;;;;;;;;;3.58;98.16;97682.05;1676763;84;26769;-86
2022/02/15 06:04:19;;;;;;;;;;;;;;;3.62;98.27;97684.84;1676513;84;24406;-85
2022/02/15 06:06:45;;;;;;;;;;;;;;;3.58;98.30;97681.59;1696014;84;20296;-85
2022/02/15 06:09:11;;;;;;;;;;;;;;;3.57;98.31;97688.13;1651685;86;24698;-85
2022/02/15 06:11:39;;;;;;;;;;;;;;;3.52;98.32;97683.21;1676665;85;22098;-90
2022/02/15 06:14:07;;;;;;;;;;;;;;;3.53;98.39;97678.88;1679840;85;25575;-82
2022/02/15 06:16:33;;;;;;;;;;;;;;;3.48;98.31;97688.64;1666718;85;25243;-82
2022/02/15 06:19:01;;;;;;;;;;;;;;;3.47;98.32;97702.02;1653704;86;20290;-83
2022/02/15 06:21:27;;;;;;;;;;;;;;;3.50;98.40;97701.01;1680927;85;24993;-87
2022/02/15 06:23:57;;;;;;;;;;;;;;;3.49;98.42;97703.24;1650410;85;22744;-86
2022/02/15 06:26:23;;;;;;;;;;;;;;;3.41;98.38;97698.47;1671096;84;26645;-90
2022/02/15 06:28:49;;;;;;;;;;;;;;;3.44;98.45;97700.07;1695497;83;24551;-87
2022/02/15 06:31:15;;;;;;;;;;;;;;;3.49;98.56;97698.87;1697755;83;20308;-87
2022/02/15 06:33:41;;;;;;;;;;;;;;;3.51;98.67;97706.11;1649142;86;24874;-89
2022/02/15 06:36:09;;;;;;;;;;;;;;;3.53;98.79;97708.17;1676438;85;21938;-89
2022/02/15 06:38:36;;;;;;;;;;;;;;;3.57;98.93;97720.47;1697932;83;26031;-83
2022/02/15 06:41:02;;;;;;;;;;;;;;;3.58;99.05;97721.69;1695425;84;24470;-83
2022/02/15 06:43:28;;;;;;;;;;;;;;;3.60;99.19;97728.89;1702881;83;20321;-90
2022/02/15 06:45:55;;;;;;;;;;;;;;;3.62;99.29;97737.42;1707922;83;20225;-90
2022/02/15 06:48:21;;;;;;;;;;;;;;;3.62;99.37;97748.22;1663857;85;22000;-86
2022/02/15 06:50:47;;;;;;;;;;;;;;;3.61;99.42;97756.89;1681560;84;26115;-86
2022/02/15 06:53:14;;;;;;;;;;;;;;;3.60;99.47;97762.52;1689488;84;25145;-87
2022/02/15 06:55:40;;;;;;;;;;;;;;;3.54;99.47;97774.52;1662860;85;20263;-88
2022/02/15 06:58:06;;;;;;;;;;;;;;;3.42;99.32;97777.73;1690045;85;24752;-86
2022/02/15 07:00:32;;;;;;;;;;;;;;;3.37;99.27;97782.30;1667604;85;22180;-85
2022/02/15 07:02:58;;;;;;;;;;;;;;;3.33;99.24;97784.64;1665723;85;26148;-83
2022/02/15 07:05:27;;;;;;;;;;;;;;;3.32;99.27;97789.02;1667723;84;24413;-89
2022/02/15 07:07:53;;;;;;;;;;;;;;;3.32;99.34;97785.59;1653314;85;20509;-89
2022/02/15 07:10:20;;;;;;;;;;;;;;;3.38;99.45;97787.86;1660685;86;25182;-89
2022/02/15 07:12:46;;;;;;;;;;;;;;;3.45;99.63;97780.59;1672260;85;22064;-86
2022/02/15 07:15:13;;;;;;;;;;;;;;;3.48;99.82;97778.70;1676458;85;26051;-86
2022/02/15 07:17:40;;;;;;;;;;;;;;;3.49;99.97;97784.23;1675517;85;24429;-86
2022/02/15 07:20:07;;;;;;;;;;;;;;;3.53;100.00;97786.23;1676694;85;20220;-86
2022/02/15 07:22:37;;;;;;;;;;;;;;;3.54;100.00;97788.74;1672364;85;24759;-89
2022/02/15 07:25:05;;;;;;;;;;;;;;;3.59;100.00;97787.20;1672355;85;21970;-90
2022/02/15 07:27:31;;;;;;;;;;;;;;;3.67;100.00;97787.62;1671616;85;26654;-89
2022/02/15 07:29:57;;;;;;;;;;;;;;;3.76;100.00;97778.91;1671523;85;24527;-89
2022/02/15 07:32:24;;;;;;;;;;;;;;;3.93;100.00;97780.59;1677842;85;20180;-87
2022/02/15 07:34:56;;;;;;;;;;;;;;;4.06;100.00;97781.63;1674436;85;24774;-83
2022/02/15 07:37:25;;;;;;;;;;;;;;;4.16;100.00;97787.12;1680928;85;22870;-83
2022/02/15 07:39:52;;;;;;;;;;;;;;;4.23;100.00;97794.95;1672097;84;25960;-85
2022/02/15 07:42:18;;;;;;;;;;;;;;;4.30;100.00;97794.16;1676011;85;24461;-87
2022/02/15 07:44:44;;;;;;;;;;;;;;;4.34;100.00;97804.27;1683948;84;20232;-89
2022/02/15 07:47:10;;;;;;;;;;;;;;;4.38;100.00;97804.46;1690353;84;25501;-85
2022/02/15 07:49:36;;;;;;;;;;;;;;;4.45;100.00;97800.63;1686338;84;22076;-87
2022/02/15 07:52:03;;;;;;;;;;;;;;;4.51;100.00;97801.58;1686344;84;26218;-87
2022/02/15 07:54:29;;;;;;;;;;;;;;;4.58;100.00;97796.41;1689868;84;24516;-85
2022/02/15 07:56:55;;;;;;;;;;;;;;;4.68;100.00;97793.32;1687596;84;20253;-87
2022/02/15 07:59:21;;;;;;;;;;;;;;;4.76;100.00;97793.70;1691253;83;20301;-87
2022/02/15 08:01:48;;;;;;;;;;;;;;;4.84;100.00;97791.53;1686679;84;22087;-85
2022/02/15 08:04:14;;;;;;;;;;;;;;;4.93;100.00;97791.00;1686340;84;25991;-90
2022/02/15 08:06:43;;;;;;;;;;;;;;;5.02;100.00;97789.16;1690491;84;24352;-90
2022/02/15 08:09:14;;;;;;;;;;;;;;;5.10;100.00;97786.97;1690440;84;20215;-90
2022/02/15 08:11:41;;;;;;;;;;;;;;;5.21;100.00;97789.77;1688267;84;24938;-91
2022/02/15 08:14:07;;;;;;;;;;;;;;;5.34;100.00;97784.25;1692311;83;22078;-84
2022/02/15 08:16:34;;;;;;;;;;;;;;;5.50;100.00;97788.52;1689754;84;26130;-85
2022/02/15 08:19:00;;;;;;;;;;;;;;;5.63;100.00;97793.33;1689934;83;24512;-84
2022/02/15 08:21:26;;;;;;;;;;;;;;;5.73;100.00;97795.73;1691286;84;20167;-85
2022/02/15 08:23:52;;;;;;;;;;;;;;;5.84;100.00;97795.92;1687671;84;24830;-85
2022/02/15 08:26:19;;;;;;;;;;;;;;;5.94;100.00;97793.66;1690137;83;22729;-82
2022/02/15 08:28:47;;;;;;;;;;;;;;;6.04;100.00;97791.69;1686125;84;26336;-82
2022/02/15 08:31:14;;;;;;;;;;;;;;;6.16;100.00;97794.00;1690876;84;24433;-82
2022/02/15 08:33:40;;;;;;;;;;;;;;;6.27;100.00;97793.66;1690565;83;20481;-82
2022/02/15 08:36:06;;;;;;;;;;;;;;;6.39;100.00;97783.44;1688821;83;24751;-82
2022/02/15 08:38:36;;;;;;;;;;;;;;;6.49;100.00;97796.23;1688806;84;21974;-89
2022/02/15 08:41:05;;;;;;;;;;;;;;;6.54;100.00;97795.02;1690484;83;25975;-90
2022/02/15 08:43:34;;;;;;;;;;;;;;;6.61;100.00;97798.87;1694068;83;20930;-89
2022/02/15 08:46:00;;;;;;;;;;;;;;;6.68;100.00;97798.02;1684601;84;20310;-87
2022/02/15 08:48:26;;;;;;;;;;;;;;;6.70;100.00;97797.46;1691098;83;24776;-87
2022/02/15 08:50:52;;;;;;;;;;;;;;;6.71;100.00;97794.74;1690486;84;21919;-85
2022/02/15 08:53:20;;;;;;;;;;;;;;;6.73;100.00;97791.59;1691173;83;26679;-84
2022/02/15 08:55:46;;;;;;;;;;;;;;;6.78;100.00;97785.25;1690951;84;24489;-85
2022/02/15 08:58:18;;;;;;;;;;;;;;;6.86;100.00;97789.03;1688694;84;20222;-90
2022/02/15 09:00:44;;;;;;;;;;;;;;;6.96;100.00;97795.77;1691291;84;24817;-90
2022/02/15 09:03:14;;;;;;;;;;;;;;;7.05;100.00;97799.05;1690290;84;22730;-90
2022/02/15 09:05:41;;;;;;;;;;;;;;;7.17;100.00;97799.55;1688893;84;26226;-82
2022/02/15 09:08:07;;;;;;;;;;;;;;;7.30;100.00;97806.09;1686173;84;24689;-90
2022/02/15 09:10:37;;;;;;;;;;;;;;;7.41;100.00;97803.13;1685019;84;20156;-82
2022/02/15 09:13:01;;;;;;;;;;;;;;;7.50;100.00;97805.58;1684766;84;24853;-88
2022/02/15 09:15:30;;;;;;;;;;;;;;;7.54;100.00;97810.47;1689600;83;21942;-85
2022/02/15 09:17:57;;;;;;;;;;;;;;;7.54;100.00;97810.93;1691292;84;25990;-90
2022/02/15 09:20:32;;;;;;;;;;;;;;;7.57;100.00;97810.74;1686116;84;25217;-90
2022/02/15 09:22:59;;;;;;;;;;;;;;;7.59;100.00;97816.66;1689072;84;20280;-87
2022/02/15 09:25:25;;;;;;;;;;;;;;;7.61;100.00;97816.10;1687892;84;24822;-90
2022/02/15 09:27:52;;;;;;;;;;;;;;;7.61;100.00;97816.56;1691689;84;21781;-87
2022/02/15 09:30:21;;;;;;;;;;;;;;;7.62;100.00;97814.33;1689849;84;25958;-87
2022/02/15 09:32:47;;;;;;;;;;;;;;;7.67;100.00;97809.64;1687583;84;24427;-87
2022/02/15 09:35:13;;;;;;;;;;;;;;;7.66;100.00;97812.71;1687434;84;20216;-87
2022/02/15 09:37:39;;;;;;;;;;;;;;;7.72;100.00;97816.67;1686947;84;24792;-87
2022/02/15 09:40:05;;;;;;;;;;;;;;;7.78;100.00;97813.66;1689857;84;21931;-87
2022/02/15 09:42:33;;;;;;;;;;;;;;;7.80;100.00;97806.08;1689840;83;26135;-87
2022/02/15 09:44:59;;;;;;;;;;;;;;;7.91;100.00;97816.59;1685244;84;25270;-85
2022/02/15 09:47:27;;;;;;;;;;;;;;;7.96;100.00;97809.30;1691355;84;20193;-85
2022/02/15 09:49:53;;;;;;;;;;;;;;;8.05;100.00;97810.91;1692404;84;24797;-85
2022/02/15 09:52:24;;;;;;;;;;;;;;;8.14;100.00;97803.74;1685184;84;22113;-83
2022/02/15 09:54:52;;;;;;;;;;;;;;;8.26;100.00;97812.85;1691539;84;26318;-83
2022/02/15 09:57:19;;;;;;;;;;;;;;;8.36;100.00;97817.80;1688358;84;24483;-86
2022/02/15 09:59:50;;;;;;;;;;;;;;;8.46;100.00;97820.59;1689260;84;20439;-83
2022/02/15 10:02:34;;;;;;;;;;;;;;;8.54;100.00;97821.36;1690338;84;24866;-83
2022/02/15 10:04:58;;;;;;;;;;;;;;;8.60;100.00;97815.23;1685073;83;22158;-84
2022/02/15 10:07:25;;;;;;;;;;;;;;;8.68;100.00;97825.10;1689388;84;26080;-83
2022/02/15 10:09:51;;;;;;;;;;;;;;;8.71;99.86;97819.68;1689185;84;24452;-84
2022/02/15 10:12:24;;;;;;;;;;;;;;;8.80;99.55;97821.15;1688122;84;20287;-83
2022/02/15 10:14:52;;;;;;;;;;;;;;;8.84;99.18;97819.64;1688754;83;24748;-85
2022/02/15 10:17:19;;;;;;;;;;;;;;;8.81;98.82;97816.30;1694571;83;22591;-87
2022/02/15 10:19:51;;;;;;;;;;;;;;;8.90;98.52;97813.94;1683392;84;26145;-83
2022/02/15 10:22:16;;;;;;;;;;;;;;;9.02;98.36;97815.66;1683676;84;25286;-83
2022/02/15 10:24:45;;;;;;;;;;;;;;;9.09;98.11;97819.03;1690006;83;20216;-89
2022/02/15 10:27:17;;;;;;;;;;;;;;;9.13;97.75;97817.02;1689792;83;24213;-90
2022/02/15 10:30:03;;;;;;;;;;;;;;;9.15;97.34;97825.11;1691902;83;21983;-89
2022/02/15 10:32:31;;;;;;;;;;;;;;;9.16;96.90;97824.64;1691061;84;26055;-89
2022/02/15 10:35:00;;;;;;;;;;;;;;;9.15;96.39;97826.88;1688209;84;24512;-88
2022/02/15 10:37:32;;;;;;;;;;;;;;;9.14;95.99;97829.96;1690852;83;20318;-89
2022/02/15 10:40:04;;;;;;;;;;;;;;;9.17;95.70;97834.95;1688836;84;25455;-89
2022/02/15 10:42:48;;;;;;;;;;;;;;;9.18;95.45;97835.78;1688750;84;22235;-90
2022/02/15 10:45:20;;;;;;;;;;;;;;;9.19;95.13;97836.98;1678922;84;26620;-90
2022/02/15 10:47:52;;;;;;;;;;;;;;;9.09;94.63;97839.91;1675049;85;24564;-90
2022/02/15 10:50:24;;;;;;;;;;;;;;;9.02;94.25;97832.16;1670307;85;20257;-90
2022/02/15 10:52:52;;;;;;;;;;;;;;;8.98;94.00;97828.59;1673074;85;24766;-85
2022/02/15 10:55:20;;;;;;;;;;;;;;;8.93;93.80;97832.00;1665411;84;20200;-88
2022/02/15 10:57:47;;;;;;;;;;;;;;;8.90;93.62;97829.60;1666775;85;26035;-90
2022/02/15 11:00:16;;;;;;;;;;;;;;;8.81;93.42;97834.56;1660910;85;24533;-90
2022/02/15 11:02:50;;;;;;;;;;;;;;;8.77;93.34;97829.20;1668384;85;20549;-89
2022/02/15 11:05:25;;;;;;;;;;;;;;;8.81;93.35;97833.72;1662550;85;20353;-90
2022/02/15 11:07:52;;;;;;;;;;;;;;;8.87;93.42;97831.14;1672141;85;21978;-84
2022/02/15 11:10:20;;;;;;;;;;;;;;;8.96;93.50;97831.30;1665455;85;25888;-84
2022/02/15 11:12:52;;;;;;;;;;;;;;;9.04;93.57;97832.06;1661329;85;37803;-83
2022/02/15 11:15:21;;;;;;;;;;;;;;;9.04;93.57;97828.14;1665281;84;20279;-83
2022/02/15 11:17:58;;;;;;;;;;;;;;;9.07;93.60;97837.03;1667007;85;25006;-82
2022/02/15 11:20:27;;;;;;;;;;;;;;;9.11;93.61;97835.39;1640917;85;22741;-82
2022/02/15 11:22:55;;;;;;;;;;;;;;;9.14;93.58;97837.80;1667342;85;26227;-82
2022/02/15 11:25:35;;;;;;;;;;;;;;;9.18;93.54;97837.92;1666182;85;24527;-82
2022/02/15 11:28:11;;;;;;;;;;;;;;;9.21;93.52;97833.80;1664412;85;20298;-82
2022/02/15 11:30:41;;;;;;;;;;;;;;;9.26;93.49;97830.84;1671548;84;24767;-82
2022/02/15 11:33:08;;;;;;;;;;;;;;;9.34;93.55;97827.17;1672536;85;22024;-82
2022/02/15 11:35:34;;;;;;;;;;;;;;;9.40;93.55;97822.80;1666173;85;26050;-82
2022/02/15 11:38:09;;;;;;;;;;;;;;;9.51;93.61;97818.07;1673944;84;24415;-82
2022/02/15 11:40:36;;;;;;;;;;;;;;;9.68;93.74;97820.72;1659021;85;20324;-82
2022/02/15 11:43:05;;;;;;;;;;;;;;;9.86;93.86;97820.63;1670005;84;24852;-82
2022/02/15 11:45:32;;;;;;;;;;;;;;;10.02;93.93;97819.34;1683561;84;23181;-82
2022/02/15 11:48:09;;;;;;;;;;;;;;;10.19;93.67;97814.14;1687812;84;26915;-82
2022/02/15 11:50:47;;;;;;;;;;;;;;;10.29;93.11;97823.39;1690226;83;25544;-83
2022/02/15 11:53:20;;;;;;;;;;;;;;;10.33;92.37;97824.34;1687858;84;20351;-84
2022/02/15 11:55:44;;;;;;;;;;;;;;;10.36;91.57;97831.96;1687536;84;24828;-84
2022/02/15 11:58:30;;;;;;;;;;;;;;;10.40;90.82;97833.38;1688303;84;22655;-90
2022/02/15 12:00:57;;;;;;;;;;;;;;;10.44;90.18;97830.86;1686135;84;26049;-84
2022/02/15 12:03:23;;;;;;;;;;;;;;;10.47;89.41;97834.53;1688514;83;23866;-84
2022/02/15 12:05:49;;;;;;;;;;;;;;;10.53;88.81;97841.57;1690473;84;20601;-87
2022/02/15 12:08:17;;;;;;;;;;;;;;;10.63;88.46;97835.48;1686608;84;24831;-90
2022/02/15 12:10:45;;;;;;;;;;;;;;;10.71;88.10;97834.38;1691260;84;22184;-90
2022/02/15 12:13:18;;;;;;;;;;;;;;;10.76;87.80;97830.08;1687284;84;26167;-91
2022/02/15 12:15:48;;;;;;;;;;;;;;;10.81;87.44;97835.30;1691101;84;24486;-88
2022/02/15 12:18:14;;;;;;;;;;;;;;;10.79;87.03;97832.47;1673122;84;20564;-88
2022/02/15 12:20:48;;;;;;;;;;;;;;;10.80;86.55;97831.52;1687510;84;24837;-87
2022/02/15 12:23:14;;;;;;;;;;;;;;;10.78;86.21;97824.27;1682851;84;22679;-87
2022/02/15 12:25:47;;;;;;;;;;;;;;;10.77;85.91;97822.12;1691017;83;26070;-87
2022/02/15 12:28:15;;;;;;;;;;;;;;;10.78;85.68;97825.09;1691475;83;24595;-90
2022/02/15 12:30:47;;;;;;;;;;;;;;;10.76;85.33;97828.30;1689945;84;20282;-89
2022/02/15 12:33:13;;;;;;;;;;;;;;;10.75;85.04;97827.11;1688887;84;24739;-82
2022/02/15 12:35:42;;;;;;;;;;;;;;;10.68;84.67;97820.72;1686945;84;21980;-88
2022/02/15 12:38:09;;;;;;;;;;;;;;;10.62;84.34;97832.51;1690941;84;26006;-89
2022/02/15 12:40:47;;;;;;;;;;;;;;;10.53;83.98;97826.67;1690053;84;24430;-89
2022/02/15 12:43:13;;;;;;;;;;;;;;;10.47;83.75;97818.03;1686375;84;20519;-87
2022/02/15 12:46:00;;;;;;;;;;;;;;;10.42;83.57;97824.91;1685696;84;24764;-87
2022/02/15 12:48:26;;;;;;;;;;;;;;;10.37;83.41;97826.22;1626000;87;22120;-88
2022/02/15 12:50:52;;;;;;;;;;;;;;;10.30;83.17;97826.38;1649812;86;26141;-87
2022/02/15 12:53:18;;;;;;;;;;;;;;;10.27;83.05;97831.83;1636426;86;24723;-87
2022/02/15 12:55:49;;;;;;;;;;;;;;;10.20;82.89;97826.23;1647871;85;20215;-82
2022/02/15 12:58:15;;;;;;;;;;;;;;;10.17;82.78;97836.11;1646314;85;24723;-82